createdAt,value
2022-10-19T00:01:24.094Z,100.00
2022-10-19T00:03:53.822Z,100.00
2022-10-19T00:06:26.830Z,100.00
2022-10-19T00:08:55.698Z,99.51
2022-10-19T00:11:23.844Z,99.34
2022-10-19T00:13:51.352Z,100.00
2022-10-19T00:16:17.992Z,98.73
2022-10-19T00:18:45.475Z,99.10
2022-10-19T00:21:14.721Z,98.17
2022-10-19T00:23:44.257Z,97.02
2022-10-19T00:26:11.995Z,99.56
2022-10-19T00:28:38.750Z,98.43
2022-10-19T00:31:06.746Z,97.92
2022-10-19T00:33:33.479Z,98.42
2022-10-19T00:36:04.134Z,99.54
2022-10-19T00:38:31.109Z,98.63
2022-10-19T00:40:57.613Z,99.60
2022-10-19T00:43:27.405Z,99.35
2022-10-19T00:45:57.056Z,98.56
2022-10-19T00:48:28.218Z,96.49
2022-10-19T00:50:59.862Z,95.68
2022-10-19T00:53:29.110Z,96.70
2022-10-19T00:55:57.349Z,97.04
2022-10-19T00:58:24.334Z,98.40
2022-10-19T01:00:51.047Z,97.64
2022-10-19T01:03:17.677Z,97.41
2022-10-19T01:05:47.551Z,97.67
2022-10-19T01:08:14.147Z,98.32
2022-10-19T01:10:59.862Z,94.66
2022-10-19T01:13:51.115Z,97.42
2022-10-19T01:16:36.687Z,96.76
2022-10-19T01:19:28.210Z,95.46
2022-10-19T01:22:03.736Z,96.55
2022-10-19T01:25:02.430Z,95.05
2022-10-19T01:28:00.043Z,94.79
2022-10-19T01:30:47.204Z,93.20
2022-10-19T01:33:35.100Z,94.04
2022-10-19T01:36:09.397Z,92.18
2022-10-19T01:39:00.903Z,91.61
2022-10-19T01:41:54.579Z,89.42
2022-10-19T01:44:27.013Z,89.99
2022-10-19T01:46:58.848Z,89.12
2022-10-19T01:49:40.238Z,90.51
2022-10-19T01:52:11.012Z,91.82
2022-10-19T01:54:42.715Z,93.29
2022-10-19T01:57:12.737Z,91.60
2022-10-19T01:59:41.834Z,93.06
2022-10-19T02:02:10.220Z,92.49
2022-10-19T02:04:38.371Z,92.69
2022-10-19T02:07:07.361Z,94.42
2022-10-19T02:09:34.000Z,93.84
2022-10-19T02:12:04.544Z,93.57
2022-10-19T02:14:36.591Z,93.48
2022-10-19T02:17:34.354Z,93.62
2022-10-19T02:20:01.453Z,92.71
2022-10-19T02:22:28.332Z,93.79
2022-10-19T02:24:54.986Z,91.99
2022-10-19T02:27:21.765Z,93.11
2022-10-19T02:29:48.273Z,92.50
2022-10-19T02:32:15.286Z,94.87
2022-10-19T02:34:42.397Z,95.08
2022-10-19T02:37:09.533Z,92.47
2022-10-19T02:39:36.072Z,92.02
2022-10-19T02:42:17.219Z,92.42
2022-10-19T02:44:52.495Z,92.01
2022-10-19T02:47:24.806Z,93.65
2022-10-19T02:49:52.198Z,93.60
2022-10-19T02:52:18.907Z,94.22
2022-10-19T02:54:48.256Z,94.99
2022-10-19T02:57:20.165Z,92.85
2022-10-19T02:59:47.045Z,93.14
2022-10-19T03:02:15.342Z,92.34
2022-10-19T03:04:41.954Z,92.19
2022-10-19T03:07:10.635Z,92.19
2022-10-19T03:09:37.325Z,93.13
2022-10-19T03:12:06.577Z,91.61
2022-10-19T03:14:33.203Z,91.23
2022-10-19T03:17:20.644Z,92.17
2022-10-19T03:19:47.367Z,91.39
2022-10-19T03:22:15.158Z,92.01
2022-10-19T03:24:41.675Z,92.77
2022-10-19T03:27:08.328Z,92.58
2022-10-19T03:36:17.059Z,93.03
2022-10-19T03:38:51.689Z,90.95
2022-10-19T03:41:23.047Z,91.42
2022-10-19T03:43:50.294Z,89.20
2022-10-19T03:46:53.509Z,91.50
2022-10-19T03:49:20.089Z,92.10
2022-10-19T03:51:47.715Z,90.59
2022-10-19T03:54:16.037Z,92.07
2022-10-19T03:56:43.041Z,91.48
2022-10-19T03:59:13.377Z,90.27
2022-10-19T04:01:46.956Z,90.14
2022-10-19T04:04:16.824Z,91.45
2022-10-19T04:06:46.200Z,91.49
2022-10-19T04:09:16.950Z,91.48
2022-10-19T04:11:51.336Z,92.38
2022-10-19T04:14:31.807Z,91.93
2022-10-19T04:17:00.062Z,90.94
2022-10-19T04:19:26.535Z,90.12
2022-10-19T04:21:53.255Z,93.06
2022-10-19T04:24:19.871Z,92.49
2022-10-19T04:26:52.141Z,91.99
2022-10-19T04:29:21.942Z,91.99
2022-10-19T04:31:51.955Z,91.54
2022-10-19T04:34:19.120Z,93.78
2022-10-19T04:36:49.350Z,94.32
2022-10-19T04:39:15.977Z,93.93
2022-10-19T04:41:57.086Z,92.77
2022-10-19T04:50:36.714Z,92.98
2022-10-19T04:53:03.676Z,91.92
2022-10-19T04:55:30.338Z,91.85
2022-10-19T04:57:56.901Z,91.79
2022-10-19T05:00:27.944Z,92.07
2022-10-19T05:02:54.601Z,93.65
2022-10-19T05:05:24.807Z,95.69
2022-10-19T05:07:51.533Z,96.95
2022-10-19T05:10:21.729Z,96.64
2022-10-19T05:12:48.367Z,91.54
2022-10-19T05:15:14.922Z,90.88
2022-10-19T05:42:07.259Z,95.89
2022-10-19T05:44:34.317Z,98.57
2022-10-19T05:47:01.013Z,97.00
2022-10-19T05:49:33.626Z,97.23
2022-10-19T05:52:02.224Z,97.22
2022-10-19T05:54:58.933Z,96.70
2022-10-19T05:57:43.195Z,96.39
2022-10-19T06:00:33.364Z,94.12
2022-10-19T06:17:39.014Z,95.33
2022-10-19T06:20:23.410Z,94.73
2022-10-19T06:22:52.687Z,96.12
2022-10-19T06:25:34.893Z,94.99
2022-10-19T06:41:59.599Z,92.69
2022-10-19T06:49:54.652Z,93.71
2022-10-19T07:22:30.156Z,92.01
2022-10-19T07:54:50.334Z,88.90
2022-10-19T21:44:00.249Z,94.41
2022-10-19T21:58:54.705Z,96.75
2022-10-19T22:02:17.437Z,97.85
2022-10-19T22:15:14.808Z,96.05
2022-10-19T22:17:53.948Z,96.55
2022-10-19T22:20:20.864Z,95.90
2022-10-19T22:22:54.145Z,95.51
2022-10-19T22:25:41.357Z,95.02
2022-10-19T22:28:11.236Z,93.57
2022-10-19T22:33:05.210Z,95.22
2022-10-19T22:35:58.661Z,96.56
2022-10-19T23:13:31.365Z,98.68
2022-10-19T23:16:01.251Z,98.10
2022-10-19T23:29:41.934Z,97.88
